sensor_id;sensor_type;location;lat;lon;timestamp;P1;durP1;ratioP1;P2;durP2;ratioP2
53267;SDS011;39156;51.176;6.738;2024-01-30T00:01:32;49.45;;;46.42;;
53267;SDS011;39156;51.176;6.738;2024-01-30T00:03:58;53.88;;;50.50;;
53267;SDS011;39156;51.176;6.738;2024-01-30T00:06:25;50.38;;;47.20;;
53267;SDS011;39156;51.176;6.738;2024-01-30T00:08:52;50.85;;;47.45;;
53267;SDS011;39156;51.176;6.738;2024-01-30T00:11:19;51.22;;;48.08;;
53267;SDS011;39156;51.176;6.738;2024-01-30T00:13:47;50.80;;;47.63;;
53267;SDS011;39156;51.176;6.738;2024-01-30T00:16:21;49.88;;;46.70;;
53267;SDS011;39156;51.176;6.738;2024-01-30T00:18:49;51.70;;;48.60;;
53267;SDS011;39156;51.176;6.738;2024-01-30T00:21:16;52.08;;;48.80;;
53267;SDS011;39156;51.176;6.738;2024-01-30T00:23:43;51.17;;;48.08;;
53267;SDS011;39156;51.176;6.738;2024-01-30T00:26:09;51.78;;;48.70;;
53267;SDS011;39156;51.176;6.738;2024-01-30T00:28:37;51.53;;;48.33;;
53267;SDS011;39156;51.176;6.738;2024-01-30T00:31:04;50.67;;;47.28;;
53267;SDS011;39156;51.176;6.738;2024-01-30T00:33:32;52.22;;;49.15;;
53267;SDS011;39156;51.176;6.738;2024-01-30T00:35:59;52.42;;;49.22;;
53267;SDS011;39156;51.176;6.738;2024-01-30T00:38:26;50.35;;;47.30;;
53267;SDS011;39156;51.176;6.738;2024-01-30T00:40:53;49.63;;;46.35;;
53267;SDS011;39156;51.176;6.738;2024-01-30T00:43:20;52.50;;;49.20;;
53267;SDS011;39156;51.176;6.738;2024-01-30T00:45:47;52.38;;;49.17;;
53267;SDS011;39156;51.176;6.738;2024-01-30T00:48:13;52.80;;;49.70;;
53267;SDS011;39156;51.176;6.738;2024-01-30T00:50:41;49.92;;;46.83;;
53267;SDS011;39156;51.176;6.738;2024-01-30T00:53:08;51.67;;;48.45;;
53267;SDS011;39156;51.176;6.738;2024-01-30T00:55:36;50.90;;;47.70;;
53267;SDS011;39156;51.176;6.738;2024-01-30T00:58:03;51.47;;;48.35;;
53267;SDS011;39156;51.176;6.738;2024-01-30T01:00:30;52.13;;;48.83;;
53267;SDS011;39156;51.176;6.738;2024-01-30T01:02:58;50.75;;;47.55;;
53267;SDS011;39156;51.176;6.738;2024-01-30T01:05:25;52.35;;;49.03;;
53267;SDS011;39156;51.176;6.738;2024-01-30T01:07:53;52.92;;;49.63;;
53267;SDS011;39156;51.176;6.738;2024-01-30T01:10:20;51.38;;;48.20;;
53267;SDS011;39156;51.176;6.738;2024-01-30T01:12:47;51.45;;;48.05;;
53267;SDS011;39156;51.176;6.738;2024-01-30T01:17:41;52.92;;;49.58;;
53267;SDS011;39156;51.176;6.738;2024-01-30T01:20:08;51.75;;;48.65;;
53267;SDS011;39156;51.176;6.738;2024-01-30T01:22:37;55.30;;;51.88;;
53267;SDS011;39156;51.176;6.738;2024-01-30T01:25:06;54.60;;;51.20;;
53267;SDS011;39156;51.176;6.738;2024-01-30T01:27:33;51.20;;;47.85;;
53267;SDS011;39156;51.176;6.738;2024-01-30T01:30:06;51.75;;;48.42;;
53267;SDS011;39156;51.176;6.738;2024-01-30T01:32:35;52.30;;;49.08;;
53267;SDS011;39156;51.176;6.738;2024-01-30T01:35:03;53.03;;;49.75;;
53267;SDS011;39156;51.176;6.738;2024-01-30T01:37:31;52.58;;;49.42;;
53267;SDS011;39156;51.176;6.738;2024-01-30T01:39:58;51.45;;;48.30;;
53267;SDS011;39156;51.176;6.738;2024-01-30T01:42:27;52.92;;;49.53;;
53267;SDS011;39156;51.176;6.738;2024-01-30T01:44:53;53.42;;;50.13;;
53267;SDS011;39156;51.176;6.738;2024-01-30T01:47:20;53.08;;;49.67;;
53267;SDS011;39156;51.176;6.738;2024-01-30T01:49:47;52.90;;;49.70;;
53267;SDS011;39156;51.176;6.738;2024-01-30T01:52:14;52.88;;;49.67;;
53267;SDS011;39156;51.176;6.738;2024-01-30T01:57:08;53.67;;;50.33;;
53267;SDS011;39156;51.176;6.738;2024-01-30T01:59:37;54.40;;;50.95;;
53267;SDS011;39156;51.176;6.738;2024-01-30T02:02:03;52.95;;;49.63;;
53267;SDS011;39156;51.176;6.738;2024-01-30T02:04:32;55.08;;;51.47;;
53267;SDS011;39156;51.176;6.738;2024-01-30T02:06:59;54.17;;;50.85;;
53267;SDS011;39156;51.176;6.738;2024-01-30T02:09:26;51.47;;;48.17;;
53267;SDS011;39156;51.176;6.738;2024-01-30T02:11:53;51.47;;;48.35;;
53267;SDS011;39156;51.176;6.738;2024-01-30T02:14:20;52.10;;;48.78;;
53267;SDS011;39156;51.176;6.738;2024-01-30T02:16:48;55.05;;;51.75;;
53267;SDS011;39156;51.176;6.738;2024-01-30T02:19:15;54.33;;;50.92;;
53267;SDS011;39156;51.176;6.738;2024-01-30T02:21:43;56.45;;;53.00;;
53267;SDS011;39156;51.176;6.738;2024-01-30T02:24:11;53.55;;;50.25;;
53267;SDS011;39156;51.176;6.738;2024-01-30T02:26:38;53.92;;;50.72;;
53267;SDS011;39156;51.176;6.738;2024-01-30T02:29:05;54.25;;;50.85;;
53267;SDS011;39156;51.176;6.738;2024-01-30T02:31:31;53.13;;;49.60;;
53267;SDS011;39156;51.176;6.738;2024-01-30T02:33:58;54.25;;;50.65;;
53267;SDS011;39156;51.176;6.738;2024-01-30T02:36:25;54.95;;;51.42;;
53267;SDS011;39156;51.176;6.738;2024-01-30T02:38:53;54.45;;;51.10;;
53267;SDS011;39156;51.176;6.738;2024-01-30T02:41:20;54.92;;;51.33;;
53267;SDS011;39156;51.176;6.738;2024-01-30T02:43:47;54.80;;;51.38;;
53267;SDS011;39156;51.176;6.738;2024-01-30T02:46:14;52.75;;;49.35;;
53267;SDS011;39156;51.176;6.738;2024-01-30T02:48:41;53.00;;;49.70;;
53267;SDS011;39156;51.176;6.738;2024-01-30T02:51:08;56.17;;;52.67;;
53267;SDS011;39156;51.176;6.738;2024-01-30T02:53:34;52.88;;;49.67;;
53267;SDS011;39156;51.176;6.738;2024-01-30T02:56:03;52.05;;;48.75;;
53267;SDS011;39156;51.176;6.738;2024-01-30T02:58:34;53.10;;;49.80;;
53267;SDS011;39156;51.176;6.738;2024-01-30T03:01:01;53.33;;;50.00;;
53267;SDS011;39156;51.176;6.738;2024-01-30T03:05:55;55.65;;;52.15;;
53267;SDS011;39156;51.176;6.738;2024-01-30T03:08:22;54.60;;;51.13;;
53267;SDS011;39156;51.176;6.738;2024-01-30T03:10:49;53.85;;;50.53;;
53267;SDS011;39156;51.176;6.738;2024-01-30T03:13:17;52.85;;;49.55;;
53267;SDS011;39156;51.176;6.738;2024-01-30T03:15:44;53.08;;;49.72;;
53267;SDS011;39156;51.176;6.738;2024-01-30T03:18:10;50.78;;;47.60;;
53267;SDS011;39156;51.176;6.738;2024-01-30T03:20:37;52.33;;;49.10;;
53267;SDS011;39156;51.176;6.738;2024-01-30T03:23:04;51.42;;;48.10;;
53267;SDS011;39156;51.176;6.738;2024-01-30T03:25:31;54.28;;;50.88;;
53267;SDS011;39156;51.176;6.738;2024-01-30T03:27:58;51.47;;;48.00;;
53267;SDS011;39156;51.176;6.738;2024-01-30T03:30:26;54.05;;;50.55;;
53267;SDS011;39156;51.176;6.738;2024-01-30T03:32:53;53.85;;;50.55;;
53267;SDS011;39156;51.176;6.738;2024-01-30T03:35:19;53.28;;;50.00;;
53267;SDS011;39156;51.176;6.738;2024-01-30T03:37:46;51.65;;;48.45;;
53267;SDS011;39156;51.176;6.738;2024-01-30T03:40:13;52.47;;;49.38;;
53267;SDS011;39156;51.176;6.738;2024-01-30T03:45:07;52.28;;;49.13;;
53267;SDS011;39156;51.176;6.738;2024-01-30T03:47:36;52.13;;;48.92;;
53267;SDS011;39156;51.176;6.738;2024-01-30T03:50:03;52.38;;;49.15;;
53267;SDS011;39156;51.176;6.738;2024-01-30T03:52:31;51.45;;;48.15;;
53267;SDS011;39156;51.176;6.738;2024-01-30T03:54:58;53.47;;;49.92;;
53267;SDS011;39156;51.176;6.738;2024-01-30T03:57:25;51.92;;;48.75;;
53267;SDS011;39156;51.176;6.738;2024-01-30T03:59:51;52.83;;;49.63;;
53267;SDS011;39156;51.176;6.738;2024-01-30T04:02:18;51.95;;;48.75;;
53267;SDS011;39156;51.176;6.738;2024-01-30T04:04:46;51.13;;;48.00;;
53267;SDS011;39156;51.176;6.738;2024-01-30T04:07:13;51.97;;;48.83;;
53267;SDS011;39156;51.176;6.738;2024-01-30T04:09:40;52.10;;;48.78;;
53267;SDS011;39156;51.176;6.738;2024-01-30T04:12:07;52.42;;;49.22;;
53267;SDS011;39156;51.176;6.738;2024-01-30T04:14:34;52.35;;;49.10;;
53267;SDS011;39156;51.176;6.738;2024-01-30T04:17:01;54.38;;;50.97;;
53267;SDS011;39156;51.176;6.738;2024-01-30T04:19:27;52.10;;;49.00;;
53267;SDS011;39156;51.176;6.738;2024-01-30T04:21:56;51.78;;;48.67;;
53267;SDS011;39156;51.176;6.738;2024-01-30T04:24:22;51.55;;;48.55;;
53267;SDS011;39156;51.176;6.738;2024-01-30T04:26:49;50.33;;;47.28;;
53267;SDS011;39156;51.176;6.738;2024-01-30T04:29:16;52.00;;;48.90;;
53267;SDS011;39156;51.176;6.738;2024-01-30T04:31:44;53.80;;;50.60;;
53267;SDS011;39156;51.176;6.738;2024-01-30T04:34:11;53.42;;;49.97;;
53267;SDS011;39156;51.176;6.738;2024-01-30T04:36:38;52.65;;;49.45;;
53267;SDS011;39156;51.176;6.738;2024-01-30T04:39:06;50.13;;;47.15;;
53267;SDS011;39156;51.176;6.738;2024-01-30T04:41:33;53.25;;;50.05;;
53267;SDS011;39156;51.176;6.738;2024-01-30T04:44:00;52.70;;;49.38;;
53267;SDS011;39156;51.176;6.738;2024-01-30T04:46:27;50.55;;;47.40;;
53267;SDS011;39156;51.176;6.738;2024-01-30T04:48:54;51.08;;;48.08;;
53267;SDS011;39156;51.176;6.738;2024-01-30T04:51:21;51.63;;;48.42;;
53267;SDS011;39156;51.176;6.738;2024-01-30T04:53:47;53.85;;;50.55;;
53267;SDS011;39156;51.176;6.738;2024-01-30T04:56:16;50.58;;;47.50;;
53267;SDS011;39156;51.176;6.738;2024-01-30T04:58:42;54.35;;;51.10;;
53267;SDS011;39156;51.176;6.738;2024-01-30T05:01:09;53.13;;;49.90;;
53267;SDS011;39156;51.176;6.738;2024-01-30T05:03:41;50.95;;;47.72;;
53267;SDS011;39156;51.176;6.738;2024-01-30T05:06:08;53.92;;;50.45;;
53267;SDS011;39156;51.176;6.738;2024-01-30T05:08:34;52.30;;;48.97;;
53267;SDS011;39156;51.176;6.738;2024-01-30T05:11:01;53.33;;;50.10;;
53267;SDS011;39156;51.176;6.738;2024-01-30T05:13:30;50.58;;;47.40;;
53267;SDS011;39156;51.176;6.738;2024-01-30T05:15:57;53.10;;;49.90;;
53267;SDS011;39156;51.176;6.738;2024-01-30T05:18:24;53.15;;;49.78;;
53267;SDS011;39156;51.176;6.738;2024-01-30T05:20:50;52.60;;;49.22;;
53267;SDS011;39156;51.176;6.738;2024-01-30T05:23:17;53.25;;;50.05;;
53267;SDS011;39156;51.176;6.738;2024-01-30T05:25:44;54.20;;;51.00;;
53267;SDS011;39156;51.176;6.738;2024-01-30T05:28:11;52.33;;;49.03;;
53267;SDS011;39156;51.176;6.738;2024-01-30T05:30:40;51.70;;;48.60;;
53267;SDS011;39156;51.176;6.738;2024-01-30T05:33:07;52.45;;;49.33;;
53267;SDS011;39156;51.176;6.738;2024-01-30T05:35:34;50.28;;;47.38;;
53267;SDS011;39156;51.176;6.738;2024-01-30T05:38:01;53.85;;;50.45;;
53267;SDS011;39156;51.176;6.738;2024-01-30T05:40:28;51.45;;;48.40;;
53267;SDS011;39156;51.176;6.738;2024-01-30T05:42:55;52.80;;;49.60;;
53267;SDS011;39156;51.176;6.738;2024-01-30T05:45:23;53.42;;;49.97;;
53267;SDS011;39156;51.176;6.738;2024-01-30T05:47:51;54.72;;;51.38;;
53267;SDS011;39156;51.176;6.738;2024-01-30T05:50:18;51.60;;;48.35;;
53267;SDS011;39156;51.176;6.738;2024-01-30T05:52:48;53.53;;;50.28;;
53267;SDS011;39156;51.176;6.738;2024-01-30T05:55:15;52.83;;;49.65;;
53267;SDS011;39156;51.176;6.738;2024-01-30T05:57:41;52.17;;;48.95;;
53267;SDS011;39156;51.176;6.738;2024-01-30T06:00:08;53.35;;;50.13;;
53267;SDS011;39156;51.176;6.738;2024-01-30T06:02:36;52.83;;;49.72;;
53267;SDS011;39156;51.176;6.738;2024-01-30T06:05:04;51.95;;;48.58;;
53267;SDS011;39156;51.176;6.738;2024-01-30T06:07:32;51.05;;;47.72;;
53267;SDS011;39156;51.176;6.738;2024-01-30T06:09:58;51.40;;;48.25;;
53267;SDS011;39156;51.176;6.738;2024-01-30T06:12:26;51.28;;;48.13;;
53267;SDS011;39156;51.176;6.738;2024-01-30T06:14:53;51.42;;;47.80;;
53267;SDS011;39156;51.176;6.738;2024-01-30T06:17:21;52.60;;;49.20;;
53267;SDS011;39156;51.176;6.738;2024-01-30T06:22:17;55.10;;;51.75;;
53267;SDS011;39156;51.176;6.738;2024-01-30T06:24:43;51.60;;;48.33;;
53267;SDS011;39156;51.176;6.738;2024-01-30T06:27:12;52.08;;;48.80;;
53267;SDS011;39156;51.176;6.738;2024-01-30T06:29:39;52.83;;;49.72;;
53267;SDS011;39156;51.176;6.738;2024-01-30T06:32:06;53.88;;;50.58;;
53267;SDS011;39156;51.176;6.738;2024-01-30T06:34:33;55.03;;;51.72;;
53267;SDS011;39156;51.176;6.738;2024-01-30T06:37:00;55.13;;;51.67;;
53267;SDS011;39156;51.176;6.738;2024-01-30T06:41:55;53.50;;;50.10;;
53267;SDS011;39156;51.176;6.738;2024-01-30T06:44:22;53.90;;;50.38;;
53267;SDS011;39156;51.176;6.738;2024-01-30T06:46:49;53.33;;;49.80;;
53267;SDS011;39156;51.176;6.738;2024-01-30T06:49:16;53.60;;;50.28;;
53267;SDS011;39156;51.176;6.738;2024-01-30T06:51:43;53.45;;;49.95;;
53267;SDS011;39156;51.176;6.738;2024-01-30T06:54:09;53.40;;;49.90;;
53267;SDS011;39156;51.176;6.738;2024-01-30T06:56:38;52.33;;;49.00;;
53267;SDS011;39156;51.176;6.738;2024-01-30T06:59:05;53.70;;;50.28;;
53267;SDS011;39156;51.176;6.738;2024-01-30T07:01:32;51.22;;;47.85;;
53267;SDS011;39156;51.176;6.738;2024-01-30T07:06:26;55.25;;;51.95;;
53267;SDS011;39156;51.176;6.738;2024-01-30T07:08:52;52.33;;;48.97;;
53267;SDS011;39156;51.176;6.738;2024-01-30T07:11:19;53.05;;;49.80;;
53267;SDS011;39156;51.176;6.738;2024-01-30T07:13:48;53.33;;;49.88;;
53267;SDS011;39156;51.176;6.738;2024-01-30T07:16:16;53.80;;;50.55;;
53267;SDS011;39156;51.176;6.738;2024-01-30T07:18:43;50.72;;;47.50;;
53267;SDS011;39156;51.176;6.738;2024-01-30T07:21:10;53.67;;;50.28;;
53267;SDS011;39156;51.176;6.738;2024-01-30T07:23:37;52.65;;;49.25;;
53267;SDS011;39156;51.176;6.738;2024-01-30T07:26:04;52.50;;;49.20;;
53267;SDS011;39156;51.176;6.738;2024-01-30T07:28:33;51.95;;;48.50;;
53267;SDS011;39156;51.176;6.738;2024-01-30T07:31:02;52.70;;;49.58;;
53267;SDS011;39156;51.176;6.738;2024-01-30T07:33:29;52.58;;;49.28;;
53267;SDS011;39156;51.176;6.738;2024-01-30T07:35:56;53.03;;;49.65;;
53267;SDS011;39156;51.176;6.738;2024-01-30T07:38:23;53.38;;;50.05;;
53267;SDS011;39156;51.176;6.738;2024-01-30T07:40:50;52.35;;;48.95;;
53267;SDS011;39156;51.176;6.738;2024-01-30T07:43:17;50.95;;;47.88;;
53267;SDS011;39156;51.176;6.738;2024-01-30T07:45:45;53.05;;;49.70;;
53267;SDS011;39156;51.176;6.738;2024-01-30T07:48:13;54.13;;;50.92;;
53267;SDS011;39156;51.176;6.738;2024-01-30T07:50:40;51.47;;;48.33;;
53267;SDS011;39156;51.176;6.738;2024-01-30T07:53:07;51.30;;;48.22;;
53267;SDS011;39156;51.176;6.738;2024-01-30T07:55:34;51.47;;;48.28;;
53267;SDS011;39156;51.176;6.738;2024-01-30T07:58:00;54.08;;;50.78;;
53267;SDS011;39156;51.176;6.738;2024-01-30T08:00:29;51.88;;;48.83;;
53267;SDS011;39156;51.176;6.738;2024-01-30T08:02:57;51.45;;;48.35;;
53267;SDS011;39156;51.176;6.738;2024-01-30T08:05:25;51.67;;;48.47;;
53267;SDS011;39156;51.176;6.738;2024-01-30T08:07:52;50.50;;;47.55;;
53267;SDS011;39156;51.176;6.738;2024-01-30T08:10:19;51.53;;;48.20;;
53267;SDS011;39156;51.176;6.738;2024-01-30T08:15:13;50.80;;;47.55;;
53267;SDS011;39156;51.176;6.738;2024-01-30T08:17:40;50.90;;;47.90;;
53267;SDS011;39156;51.176;6.738;2024-01-30T08:20:07;50.33;;;47.15;;
53267;SDS011;39156;51.176;6.738;2024-01-30T08:22:39;50.95;;;47.75;;
53267;SDS011;39156;51.176;6.738;2024-01-30T08:25:06;53.25;;;49.72;;
53267;SDS011;39156;51.176;6.738;2024-01-30T08:27:34;52.88;;;49.67;;
53267;SDS011;39156;51.176;6.738;2024-01-30T08:30:03;51.60;;;48.55;;
53267;SDS011;39156;51.176;6.738;2024-01-30T08:32:32;54.35;;;50.70;;
53267;SDS011;39156;51.176;6.738;2024-01-30T08:34:59;51.03;;;47.75;;
53267;SDS011;39156;51.176;6.738;2024-01-30T08:37:28;52.65;;;49.45;;
53267;SDS011;39156;51.176;6.738;2024-01-30T08:39:56;53.25;;;49.95;;
53267;SDS011;39156;51.176;6.738;2024-01-30T08:42:23;53.58;;;50.33;;
53267;SDS011;39156;51.176;6.738;2024-01-30T08:44:50;52.58;;;49.38;;
53267;SDS011;39156;51.176;6.738;2024-01-30T08:47:18;50.20;;;47.22;;
53267;SDS011;39156;51.176;6.738;2024-01-30T08:49:45;52.75;;;49.28;;
53267;SDS011;39156;51.176;6.738;2024-01-30T08:52:12;53.67;;;50.25;;
53267;SDS011;39156;51.176;6.738;2024-01-30T08:57:07;49.67;;;46.42;;
53267;SDS011;39156;51.176;6.738;2024-01-30T08:59:34;51.08;;;48.13;;
53267;SDS011;39156;51.176;6.738;2024-01-30T09:02:01;49.80;;;46.65;;
53267;SDS011;39156;51.176;6.738;2024-01-30T09:04:28;49.75;;;46.65;;
53267;SDS011;39156;51.176;6.738;2024-01-30T09:06:55;49.45;;;46.55;;
53267;SDS011;39156;51.176;6.738;2024-01-30T09:09:22;48.20;;;45.28;;
53267;SDS011;39156;51.176;6.738;2024-01-30T09:11:49;53.50;;;50.15;;
53267;SDS011;39156;51.176;6.738;2024-01-30T09:14:17;51.53;;;48.15;;
53267;SDS011;39156;51.176;6.738;2024-01-30T09:16:44;51.00;;;47.80;;
53267;SDS011;39156;51.176;6.738;2024-01-30T09:19:13;49.05;;;45.85;;
53267;SDS011;39156;51.176;6.738;2024-01-30T09:21:40;51.10;;;47.90;;
53267;SDS011;39156;51.176;6.738;2024-01-30T09:24:07;49.00;;;46.08;;
53267;SDS011;39156;51.176;6.738;2024-01-30T09:26:34;51.88;;;48.63;;
53267;SDS011;39156;51.176;6.738;2024-01-30T09:29:01;49.58;;;46.47;;
53267;SDS011;39156;51.176;6.738;2024-01-30T09:31:29;50.35;;;47.08;;
53267;SDS011;39156;51.176;6.738;2024-01-30T09:33:56;49.50;;;46.55;;
53267;SDS011;39156;51.176;6.738;2024-01-30T09:36:22;50.35;;;47.35;;
53267;SDS011;39156;51.176;6.738;2024-01-30T09:38:50;49.88;;;46.78;;
53267;SDS011;39156;51.176;6.738;2024-01-30T09:41:17;49.88;;;46.88;;
53267;SDS011;39156;51.176;6.738;2024-01-30T09:43:47;48.30;;;45.20;;
53267;SDS011;39156;51.176;6.738;2024-01-30T09:46:14;51.80;;;48.67;;
53267;SDS011;39156;51.176;6.738;2024-01-30T09:48:46;50.15;;;47.15;;
53267;SDS011;39156;51.176;6.738;2024-01-30T09:51:14;52.50;;;49.13;;
53267;SDS011;39156;51.176;6.738;2024-01-30T09:53:42;52.22;;;48.45;;
53267;SDS011;39156;51.176;6.738;2024-01-30T09:56:09;51.88;;;48.70;;
53267;SDS011;39156;51.176;6.738;2024-01-30T09:58:38;50.88;;;47.55;;
53267;SDS011;39156;51.176;6.738;2024-01-30T10:01:05;51.67;;;48.38;;
53267;SDS011;39156;51.176;6.738;2024-01-30T10:03:32;50.85;;;47.75;;
53267;SDS011;39156;51.176;6.738;2024-01-30T10:06:01;49.08;;;46.08;;
53267;SDS011;39156;51.176;6.738;2024-01-30T10:08:28;50.17;;;47.00;;
53267;SDS011;39156;51.176;6.738;2024-01-30T10:10:55;50.47;;;47.22;;
53267;SDS011;39156;51.176;6.738;2024-01-30T10:13:22;48.55;;;45.55;;
53267;SDS011;39156;51.176;6.738;2024-01-30T10:15:48;52.35;;;49.35;;
53267;SDS011;39156;51.176;6.738;2024-01-30T10:18:17;51.33;;;48.22;;
53267;SDS011;39156;51.176;6.738;2024-01-30T10:20:44;49.67;;;46.63;;
53267;SDS011;39156;51.176;6.738;2024-01-30T10:23:13;53.53;;;50.25;;
53267;SDS011;39156;51.176;6.738;2024-01-30T10:25:40;50.38;;;47.35;;
53267;SDS011;39156;51.176;6.738;2024-01-30T10:28:07;51.58;;;48.40;;
53267;SDS011;39156;51.176;6.738;2024-01-30T10:30:33;50.47;;;47.45;;
53267;SDS011;39156;51.176;6.738;2024-01-30T10:33:00;48.92;;;45.90;;
53267;SDS011;39156;51.176;6.738;2024-01-30T10:35:28;48.38;;;45.33;;
53267;SDS011;39156;51.176;6.738;2024-01-30T10:37:55;48.83;;;45.50;;
53267;SDS011;39156;51.176;6.738;2024-01-30T10:40:26;48.45;;;45.53;;
53267;SDS011;39156;51.176;6.738;2024-01-30T10:42:55;49.17;;;46.30;;
53267;SDS011;39156;51.176;6.738;2024-01-30T10:45:22;48.20;;;45.22;;
53267;SDS011;39156;51.176;6.738;2024-01-30T10:47:53;49.13;;;45.88;;
53267;SDS011;39156;51.176;6.738;2024-01-30T10:50:22;48.10;;;44.92;;
53267;SDS011;39156;51.176;6.738;2024-01-30T10:52:51;49.55;;;46.38;;
53267;SDS011;39156;51.176;6.738;2024-01-30T10:55:19;51.50;;;48.10;;
53267;SDS011;39156;51.176;6.738;2024-01-30T10:57:50;45.58;;;42.72;;
53267;SDS011;39156;51.176;6.738;2024-01-30T11:00:18;48.88;;;45.97;;
53267;SDS011;39156;51.176;6.738;2024-01-30T11:02:48;50.30;;;47.20;;
53267;SDS011;39156;51.176;6.738;2024-01-30T11:05:22;45.92;;;43.13;;
53267;SDS011;39156;51.176;6.738;2024-01-30T11:07:51;49.53;;;46.42;;
53267;SDS011;39156;51.176;6.738;2024-01-30T11:10:18;47.80;;;44.90;;
53267;SDS011;39156;51.176;6.738;2024-01-30T11:12:45;49.13;;;46.03;;
53267;SDS011;39156;51.176;6.738;2024-01-30T11:15:14;49.05;;;46.08;;
53267;SDS011;39156;51.176;6.738;2024-01-30T11:17:43;50.13;;;46.92;;
53267;SDS011;39156;51.176;6.738;2024-01-30T11:20:12;47.25;;;44.35;;
53267;SDS011;39156;51.176;6.738;2024-01-30T11:22:44;47.45;;;44.60;;
53267;SDS011;39156;51.176;6.738;2024-01-30T11:25:13;47.83;;;44.90;;
53267;SDS011;39156;51.176;6.738;2024-01-30T11:27:41;50.97;;;47.80;;
53267;SDS011;39156;51.176;6.738;2024-01-30T11:30:09;47.38;;;44.15;;
53267;SDS011;39156;51.176;6.738;2024-01-30T11:32:37;50.55;;;47.35;;
53267;SDS011;39156;51.176;6.738;2024-01-30T11:35:05;47.78;;;44.80;;
53267;SDS011;39156;51.176;6.738;2024-01-30T11:37:35;48.58;;;45.38;;
53267;SDS011;39156;51.176;6.738;2024-01-30T11:40:04;46.78;;;42.88;;
53267;SDS011;39156;51.176;6.738;2024-01-30T11:42:33;48.17;;;45.28;;
53267;SDS011;39156;51.176;6.738;2024-01-30T11:45:05;47.63;;;44.67;;
53267;SDS011;39156;51.176;6.738;2024-01-30T11:47:34;49.80;;;46.80;;
53267;SDS011;39156;51.176;6.738;2024-01-30T11:50:03;49.40;;;46.40;;
53267;SDS011;39156;51.176;6.738;2024-01-30T11:52:31;48.58;;;45.10;;
53267;SDS011;39156;51.176;6.738;2024-01-30T11:54:59;47.08;;;44.17;;
53267;SDS011;39156;51.176;6.738;2024-01-30T11:57:27;50.47;;;47.40;;
53267;SDS011;39156;51.176;6.738;2024-01-30T11:59:54;47.80;;;44.67;;
53267;SDS011;39156;51.176;6.738;2024-01-30T12:02:21;50.10;;;46.92;;
53267;SDS011;39156;51.176;6.738;2024-01-30T12:04:48;51.75;;;48.17;;
53267;SDS011;39156;51.176;6.738;2024-01-30T12:07:16;47.05;;;44.22;;
53267;SDS011;39156;51.176;6.738;2024-01-30T12:09:51;50.60;;;47.35;;
53267;SDS011;39156;51.176;6.738;2024-01-30T12:12:21;48.22;;;45.42;;
53267;SDS011;39156;51.176;6.738;2024-01-30T12:14:48;48.97;;;45.92;;
53267;SDS011;39156;51.176;6.738;2024-01-30T12:17:22;50.70;;;47.70;;
53267;SDS011;39156;51.176;6.738;2024-01-30T12:19:51;48.35;;;45.42;;
53267;SDS011;39156;51.176;6.738;2024-01-30T12:24:57;45.60;;;42.47;;
53267;SDS011;39156;51.176;6.738;2024-01-30T12:29:55;48.00;;;44.83;;
53267;SDS011;39156;51.176;6.738;2024-01-30T12:32:23;45.55;;;42.63;;
53267;SDS011;39156;51.176;6.738;2024-01-30T12:37:16;46.65;;;43.55;;
53267;SDS011;39156;51.176;6.738;2024-01-30T12:39:48;46.00;;;43.28;;
53267;SDS011;39156;51.176;6.738;2024-01-30T12:42:15;47.05;;;43.95;;
53267;SDS011;39156;51.176;6.738;2024-01-30T12:44:42;48.80;;;45.58;;
53267;SDS011;39156;51.176;6.738;2024-01-30T12:47:09;46.33;;;43.42;;
53267;SDS011;39156;51.176;6.738;2024-01-30T12:49:36;44.60;;;41.80;;
53267;SDS011;39156;51.176;6.738;2024-01-30T12:52:03;45.85;;;43.20;;
53267;SDS011;39156;51.176;6.738;2024-01-30T12:54:31;46.80;;;43.83;;
53267;SDS011;39156;51.176;6.738;2024-01-30T12:56:59;46.30;;;43.08;;
53267;SDS011;39156;51.176;6.738;2024-01-30T12:59:26;46.88;;;44.03;;
53267;SDS011;39156;51.176;6.738;2024-01-30T13:01:53;47.30;;;44.50;;
53267;SDS011;39156;51.176;6.738;2024-01-30T13:04:19;44.90;;;42.00;;
53267;SDS011;39156;51.176;6.738;2024-01-30T13:06:46;45.65;;;42.90;;
53267;SDS011;39156;51.176;6.738;2024-01-30T13:09:13;47.03;;;44.30;;
53267;SDS011;39156;51.176;6.738;2024-01-30T13:11:41;46.00;;;42.97;;
53267;SDS011;39156;51.176;6.738;2024-01-30T13:14:09;44.90;;;42.38;;
53267;SDS011;39156;51.176;6.738;2024-01-30T13:16:36;45.80;;;42.90;;
53267;SDS011;39156;51.176;6.738;2024-01-30T13:21:29;45.80;;;42.92;;
53267;SDS011;39156;51.176;6.738;2024-01-30T13:23:56;45.85;;;43.25;;
53267;SDS011;39156;51.176;6.738;2024-01-30T13:26:23;46.55;;;43.55;;
53267;SDS011;39156;51.176;6.738;2024-01-30T13:28:50;48.67;;;45.53;;
53267;SDS011;39156;51.176;6.738;2024-01-30T13:31:18;45.60;;;42.80;;
53267;SDS011;39156;51.176;6.738;2024-01-30T13:33:45;45.58;;;42.97;;
53267;SDS011;39156;51.176;6.738;2024-01-30T13:36:14;44.85;;;42.20;;
53267;SDS011;39156;51.176;6.738;2024-01-30T13:38:41;45.70;;;42.88;;
53267;SDS011;39156;51.176;6.738;2024-01-30T13:43:35;47.95;;;44.95;;
53267;SDS011;39156;51.176;6.738;2024-01-30T13:46:02;49.63;;;46.22;;
53267;SDS011;39156;51.176;6.738;2024-01-30T13:48:31;48.67;;;45.72;;
53267;SDS011;39156;51.176;6.738;2024-01-30T13:50:58;48.83;;;45.33;;
53267;SDS011;39156;51.176;6.738;2024-01-30T13:53:25;46.28;;;43.47;;
53267;SDS011;39156;51.176;6.738;2024-01-30T13:55:51;48.70;;;45.70;;
53267;SDS011;39156;51.176;6.738;2024-01-30T13:58:18;47.72;;;44.53;;
53267;SDS011;39156;51.176;6.738;2024-01-30T14:00:45;46.40;;;43.30;;
53267;SDS011;39156;51.176;6.738;2024-01-30T14:05:40;47.80;;;45.00;;
53267;SDS011;39156;51.176;6.738;2024-01-30T14:08:07;46.67;;;43.80;;
53267;SDS011;39156;51.176;6.738;2024-01-30T14:10:34;48.83;;;45.78;;
53267;SDS011;39156;51.176;6.738;2024-01-30T14:13:01;43.17;;;40.60;;
53267;SDS011;39156;51.176;6.738;2024-01-30T14:15:28;48.55;;;45.30;;
53267;SDS011;39156;51.176;6.738;2024-01-30T14:17:55;47.78;;;44.55;;
53267;SDS011;39156;51.176;6.738;2024-01-30T14:20:22;46.47;;;43.63;;
53267;SDS011;39156;51.176;6.738;2024-01-30T14:22:50;48.28;;;45.28;;
53267;SDS011;39156;51.176;6.738;2024-01-30T14:25:18;46.10;;;43.20;;
53267;SDS011;39156;51.176;6.738;2024-01-30T14:27:45;46.13;;;42.42;;
53267;SDS011;39156;51.176;6.738;2024-01-30T14:30:12;46.78;;;43.78;;
53267;SDS011;39156;51.176;6.738;2024-01-30T14:35:07;48.60;;;45.70;;
53267;SDS011;39156;51.176;6.738;2024-01-30T14:37:35;46.38;;;43.75;;
53267;SDS011;39156;51.176;6.738;2024-01-30T14:40:05;46.92;;;44.08;;
53267;SDS011;39156;51.176;6.738;2024-01-30T14:42:33;45.95;;;43.03;;
53267;SDS011;39156;51.176;6.738;2024-01-30T14:45:01;46.15;;;43.20;;
53267;SDS011;39156;51.176;6.738;2024-01-30T14:47:28;49.20;;;46.20;;
53267;SDS011;39156;51.176;6.738;2024-01-30T14:49:56;44.83;;;41.92;;
53267;SDS011;39156;51.176;6.738;2024-01-30T14:54:49;46.90;;;44.00;;
53267;SDS011;39156;51.176;6.738;2024-01-30T14:57:18;48.58;;;45.30;;
53267;SDS011;39156;51.176;6.738;2024-01-30T14:59:45;47.33;;;44.40;;
53267;SDS011;39156;51.176;6.738;2024-01-30T15:02:13;46.50;;;43.78;;
53267;SDS011;39156;51.176;6.738;2024-01-30T15:04:40;46.28;;;43.40;;